Time;durP1;ratioP1;P1;durP2;ratioP2;P2;SDS_P1;SDS_P2;PMS_P1;PMS_P2;Temp;Humidity;BMP_temperature;BMP_pressure;BME280_temperature;BME280_humidity;BME280_pressure;Samples;Min_cycle;Max_cycle;Signal;HPM_P1;HPM_P2
2021/12/02 00:02:31;;;;;;;1.73;1.63;;;7.10;99.90;7.30;99864.00;;;;5093059;28;20202;-77
2021/12/02 00:04:59;;;;;;;1.10;1.10;;;7.10;99.90;6.70;99865.00;;;;5109995;28;20191;-77
2021/12/02 00:07:25;;;;;;;0.90;0.90;;;6.90;99.90;6.80;99861.00;;;;5095481;28;20172;-76
2021/12/02 00:09:51;;;;;;;1.00;1.00;;;6.80;99.90;6.40;99810.00;;;;5111256;28;20174;-77
2021/12/02 00:12:20;;;;;;;0.80;0.80;;;6.60;99.90;6.80;99849.00;;;;5077479;28;20200;-76
2021/12/02 00:14:50;;;;;;;1.20;1.20;;;6.70;99.90;7.00;99878.00;;;;5110136;28;20661;-76
2021/12/02 00:17:28;;;;;;;0.97;0.97;;;6.90;99.90;7.50;99897.00;;;;5095402;28;20166;-76
2021/12/02 00:23:34;;;;;;;0.90;0.90;;;7.30;99.90;7.50;99878.00;;;;5108393;28;20264;-74
2021/12/02 00:26:22;;;;;;;0.90;0.90;;;7.30;99.90;7.60;99912.00;;;;5095088;28;20169;-75
2021/12/02 00:29:00;;;;;;;1.00;1.00;;;7.40;99.90;7.80;99913.00;;;;5076821;28;20185;-74
2021/12/02 00:31:30;;;;;;;1.00;1.00;;;7.40;99.90;7.50;99907.00;;;;5076046;28;20683;-74
2021/12/02 00:34:01;;;;;;;0.90;0.90;;;7.40;99.90;7.30;99904.00;;;;5059824;28;20174;-75
2021/12/02 00:36:32;;;;;;;1.00;1.00;;;7.20;99.90;7.30;99894.00;;;;5094312;28;20204;-75
2021/12/02 00:39:10;;;;;;;1.20;1.20;;;7.10;99.90;7.40;99906.00;;;;5059468;28;20191;-75
2021/12/02 00:41:44;;;;;;;1.00;1.00;;;7.10;99.90;7.40;99907.00;;;;5077032;28;20185;-76
2021/12/02 00:44:13;;;;;;;1.10;1.10;;;7.20;99.90;7.10;99837.00;;;;5077554;28;20185;-76
2021/12/02 00:46:51;;;;;;;1.07;1.07;;;7.00;99.90;7.20;99901.00;;;;5075930;28;20179;-76
2021/12/02 00:49:22;;;;;;;1.10;1.10;;;7.00;99.90;7.20;99905.00;;;;5109397;28;20630;-76
2021/12/02 00:51:59;;;;;;;1.20;1.20;;;7.00;99.90;7.10;99900.00;;;;5093533;28;20229;-76
2021/12/02 00:54:31;;;;;;;1.23;1.23;;;6.90;99.90;7.30;99914.00;;;;5091797;28;20173;-76
2021/12/02 00:57:03;;;;;;;1.20;1.20;;;6.90;99.90;7.20;99907.00;;;;5075615;28;20546;-75
2021/12/02 00:59:31;;;;;;;1.13;1.13;;;6.90;99.90;6.90;99902.00;;;;5076496;28;20180;-76
2021/12/02 01:02:01;;;;;;;1.13;1.13;;;6.80;99.90;6.70;99901.00;;;;5110399;28;20182;-76
2021/12/02 01:04:30;;;;;;;1.23;1.23;;;6.60;99.90;7.10;99910.00;;;;5076251;28;20175;-75
2021/12/02 01:06:57;;;;;;;1.30;1.30;;;6.70;99.90;7.10;99911.00;;;;5109875;28;20190;-76
2021/12/02 01:09:28;;;;;;;1.30;1.30;;;6.70;99.90;7.30;99911.00;;;;5094689;28;20170;-76
2021/12/02 01:11:58;;;;;;;1.30;1.30;;;6.80;99.90;7.40;99914.00;;;;5093189;28;20196;-76
2021/12/02 01:14:29;;;;;;;1.20;1.20;;;6.90;99.90;7.00;99916.00;;;;5093976;28;20199;-76
2021/12/02 01:17:01;;;;;;;1.10;1.10;;;7.00;99.90;7.20;99927.00;;;;5059678;28;20186;-76
2021/12/02 01:19:27;;;;;;;1.10;1.10;;;7.00;99.90;6.90;99926.00;;;;5076218;28;20177;-76
2021/12/02 01:21:57;;;;;;;0.97;0.97;;;6.90;99.90;6.60;99917.00;;;;5110233;28;20665;-76
2021/12/02 01:24:33;;;;;;;2.87;1.80;;;6.80;99.90;6.50;99907.00;;;;5092847;28;20182;-78
2021/12/02 01:27:06;;;;;;;0.90;0.90;;;6.60;99.90;6.80;99903.00;;;;5109191;28;20310;-78
2021/12/02 01:29:41;;;;;;;0.97;0.97;;;6.70;99.90;6.80;99914.00;;;;5075516;28;20178;-79
2021/12/02 01:32:13;;;;;;;0.90;0.90;;;6.70;99.90;6.60;99906.00;;;;5074497;28;20685;-80
2021/12/02 01:34:46;;;;;;;1.00;1.00;;;6.60;99.90;6.90;99921.00;;;;5076777;28;20217;-80
2021/12/02 01:37:22;;;;;;;1.00;1.00;;;6.60;99.90;7.00;99913.00;;;;5058623;28;20172;-80
2021/12/02 01:39:52;;;;;;;1.20;1.20;;;6.70;99.90;6.80;99909.00;;;;5076386;28;20181;-81
2021/12/02 01:42:28;;;;;;;1.07;1.07;;;6.70;99.90;7.20;99919.00;;;;5074314;28;20302;-80
2021/12/02 01:44:58;;;;;;;2.43;2.33;;;6.80;99.90;6.80;99907.00;;;;5109288;28;20259;-78
2021/12/02 01:47:33;;;;;;;1.00;1.00;;;6.70;99.90;6.50;99877.00;;;;5075498;28;20186;-76
2021/12/02 01:50:17;;;;;;;0.90;0.90;;;6.50;99.90;6.40;99880.00;;;;5058930;28;20189;-76
2021/12/02 01:52:49;;;;;;;0.90;0.90;;;6.30;99.90;6.50;99935.00;;;;5059023;28;20216;-73
2021/12/02 01:55:16;;;;;;;1.00;1.00;;;6.40;99.90;6.80;99927.00;;;;5058151;28;20182;-73
2021/12/02 01:58:00;;;;;;;1.00;1.00;;;6.50;99.90;6.70;99949.00;;;;5075058;28;20192;-73
2021/12/02 02:00:43;;;;;;;0.90;0.90;;;6.60;99.90;6.90;99942.00;;;;5108149;28;20582;-73
2021/12/02 02:03:15;;;;;;;1.00;1.00;;;6.60;99.90;7.10;99941.00;;;;5076459;28;20292;-73
2021/12/02 02:05:47;;;;;;;1.00;1.00;;;6.70;99.90;7.10;99949.00;;;;5074307;28;20578;-73
2021/12/02 02:08:22;;;;;;;1.00;1.00;;;6.80;99.90;7.20;99950.00;;;;5058200;28;20185;-72
2021/12/02 02:10:52;;;;;;;1.07;1.07;;;6.90;99.90;7.20;99942.00;;;;5059289;28;20181;-72
2021/12/02 02:13:25;;;;;;;0.90;0.90;;;6.80;99.90;7.20;99908.00;;;;5093219;28;20267;-73
2021/12/02 02:15:55;;;;;;;1.00;1.00;;;6.90;99.90;7.20;99948.00;;;;5109275;28;20190;-73
2021/12/02 02:18:25;;;;;;;1.00;1.00;;;6.80;99.90;7.20;99954.00;;;;5093232;28;20209;-73
2021/12/02 02:23:27;;;;;;;0.80;0.80;;;6.60;99.90;6.30;99960.00;;;;5075450;28;20182;-73
2021/12/02 02:25:58;;;;;;;0.80;0.80;;;6.50;99.90;6.50;99956.00;;;;5091898;28;20270;-73
2021/12/02 02:28:32;;;;;;;0.73;0.73;;;6.50;99.90;6.20;99961.00;;;;5057727;28;20242;-72
2021/12/02 02:31:04;;;;;;;0.80;0.80;;;6.40;99.90;6.30;99939.00;;;;5074990;28;20188;-72
2021/12/02 02:33:38;;;;;;;0.80;0.80;;;6.30;99.90;6.30;99948.00;;;;5109076;28;20176;-72
2021/12/02 02:36:13;;;;;;;0.80;0.80;;;6.30;99.90;6.40;99951.00;;;;5090600;28;20188;-72
2021/12/02 02:38:44;;;;;;;0.90;0.90;;;6.30;99.90;6.30;99950.00;;;;5091844;28;20575;-72
2021/12/02 02:41:20;;;;;;;1.33;1.33;;;6.30;99.90;6.70;99962.00;;;;5093447;28;20192;-72
2021/12/02 02:43:55;;;;;;;1.00;1.00;;;6.40;99.90;6.60;99964.00;;;;5092873;28;20176;-73
2021/12/02 02:46:46;;;;;;;0.87;0.87;;;6.50;99.90;6.30;99971.00;;;;5058449;28;20594;-73
2021/12/02 02:49:15;;;;;;;0.80;0.80;;;6.40;99.90;6.50;99972.00;;;;5075196;28;20181;-73
2021/12/02 02:51:45;;;;;;;0.80;0.80;;;6.40;99.90;6.10;99974.00;;;;5093416;28;20201;-73
2021/12/02 02:54:15;;;;;;;1.00;1.00;;;6.20;99.90;5.90;99947.00;;;;5075412;28;20243;-73
2021/12/02 02:57:03;;;;;;;0.90;0.90;;;6.10;99.90;5.50;99955.00;;;;5074732;28;20202;-74
2021/12/02 02:59:40;;;;;;;15.50;1.17;;;5.90;99.90;5.90;99967.00;;;;5058971;28;20195;-74
2021/12/02 03:02:17;;;;;;;1.07;1.07;;;5.90;99.90;5.80;99965.00;;;;5076556;28;20172;-74
2021/12/02 03:07:28;;;;;;;0.70;0.70;;;5.70;99.90;5.60;99996.00;;;;5107007;28;20193;-76
2021/12/02 03:10:15;;;;;;;0.90;0.90;;;5.70;99.90;6.00;99954.00;;;;5058926;28;20326;-76
2021/12/02 03:13:14;;;;;;;0.80;0.80;;;5.80;99.90;5.70;99936.00;;;;5060117;28;20200;-77
2021/12/02 03:18:33;;;;;;;1.00;1.00;;;5.80;99.90;5.70;99972.00;;;;5077529;28;20243;-78
2021/12/02 03:20:59;;;;;;;1.00;1.00;;;5.80;99.90;5.90;99980.00;;;;5094256;28;20610;-75
2021/12/02 03:23:28;;;;;;;1.10;1.10;;;5.80;99.90;6.00;99979.00;;;;5110811;28;20174;-75
2021/12/02 03:26:02;;;;;;;1.10;1.10;;;5.80;99.90;6.20;99978.00;;;;5095669;28;20182;-73
2021/12/02 03:28:31;;;;;;;1.00;1.00;;;5.80;99.90;5.50;99965.00;;;;5112091;28;20200;-72
2021/12/02 03:31:02;;;;;;;0.90;0.90;;;5.70;99.90;5.10;99962.00;;;;5111474;28;20224;-72
2021/12/02 03:33:28;;;;;;;1.20;1.20;;;5.30;99.90;4.80;99954.00;;;;5095272;28;20255;-72
2021/12/02 03:35:59;;;;;;;1.07;1.07;;;5.10;99.90;4.40;99964.00;;;;5076988;28;20181;-72
2021/12/02 03:38:24;;;;;;;0.70;0.70;;;4.80;99.90;4.60;99975.00;;;;5111848;28;20621;-72
2021/12/02 03:40:53;;;;;;;0.90;0.90;;;4.80;99.90;4.40;99965.00;;;;5095862;28;20180;-71
2021/12/02 03:43:24;;;;;;;0.77;0.77;;;4.70;99.90;4.60;99952.00;;;;5111699;28;20173;-71
2021/12/02 03:45:54;;;;;;;0.73;0.73;;;4.80;99.90;5.00;99966.00;;;;5095237;28;20528;-72
2021/12/02 03:48:23;;;;;;;0.90;0.90;;;5.00;99.90;5.30;99962.00;;;;5094719;28;20196;-72
2021/12/02 03:50:51;;;;;;;0.87;0.87;;;5.20;99.90;5.10;99968.00;;;;5110236;28;20173;-73
2021/12/02 03:53:23;;;;;;;0.90;0.90;;;5.20;99.90;5.70;99976.00;;;;5110061;28;20230;-74
2021/12/02 03:55:55;;;;;;;1.97;1.13;;;5.40;99.90;5.10;99964.00;;;;5094046;28;20202;-72
2021/12/02 03:58:23;;;;;;;0.87;0.87;;;5.40;99.90;5.30;99966.00;;;;5093705;28;20254;-72
2021/12/02 04:00:57;;;;;;;0.90;0.90;;;5.40;99.90;5.70;99973.00;;;;5076664;28;20234;-72
2021/12/02 04:03:26;;;;;;;0.90;0.90;;;5.50;99.90;5.50;99998.00;;;;5110566;28;20181;-72
2021/12/02 04:05:51;;;;;;;0.80;0.80;;;5.50;99.90;5.50;99967.00;;;;5077865;28;20185;-72
2021/12/02 04:08:27;;;;;;;0.80;0.80;;;5.50;99.90;5.50;100001.00;;;;5094689;28;20183;-73
2021/12/02 04:10:59;;;;;;;0.80;0.80;;;5.50;99.90;5.30;99972.00;;;;5109988;28;20184;-73
2021/12/02 04:13:33;;;;;;;1.00;1.00;;;5.50;99.90;5.60;99965.00;;;;5078484;28;20671;-73
2021/12/02 04:16:03;;;;;;;1.00;1.00;;;5.50;99.90;5.60;99991.00;;;;5111148;28;20172;-72
2021/12/02 04:18:36;;;;;;;1.50;1.50;;;5.60;99.90;5.90;99987.00;;;;5095825;28;20188;-72
2021/12/02 04:21:07;;;;;;;1.00;1.00;;;5.70;99.90;5.70;99941.00;;;;5060557;28;20257;-72
2021/12/02 04:23:35;;;;;;;1.00;1.00;;;5.70;99.90;5.50;99960.00;;;;5110649;28;20618;-72
2021/12/02 04:26:09;;;;;;;0.90;0.90;;;5.60;99.90;5.40;99967.00;;;;5077361;28;20625;-72
2021/12/02 04:28:41;;;;;;;1.10;1.10;;;5.60;99.90;5.60;99982.00;;;;5110911;28;20263;-73
2021/12/02 04:31:10;;;;;;;1.00;1.00;;;5.60;99.90;5.50;99968.00;;;;5076400;28;20186;-72
2021/12/02 04:33:41;;;;;;;1.00;1.00;;;5.60;99.90;5.50;99983.00;;;;5077066;28;20219;-72
2021/12/02 04:36:07;;;;;;;1.00;1.00;;;5.50;99.90;5.40;99988.00;;;;5110045;28;20273;-72
2021/12/02 04:38:34;;;;;;;1.00;1.00;;;5.50;99.90;5.60;99986.00;;;;5093807;28;20732;-71
2021/12/02 04:41:03;;;;;;;1.00;1.00;;;5.50;99.90;5.10;99979.00;;;;5076993;28;20185;-71
2021/12/02 04:43:29;;;;;;;0.90;0.90;;;5.40;99.90;5.20;99996.00;;;;5110277;28;20165;-71
2021/12/02 04:46:01;;;;;;;0.80;0.80;;;5.30;99.90;5.10;99985.00;;;;5093955;28;20176;-71
2021/12/02 04:48:31;;;;;;;0.83;0.83;;;5.20;99.90;5.40;99984.00;;;;5094315;28;20179;-72
2021/12/02 04:50:59;;;;;;;0.83;0.83;;;5.40;99.90;5.30;99921.00;;;;5095066;28;20180;-71
2021/12/02 04:53:27;;;;;;;0.90;0.90;;;5.30;99.90;5.40;99989.00;;;;5094110;28;20200;-72
2021/12/02 04:56:00;;;;;;;0.90;0.90;;;5.30;99.90;5.50;99989.00;;;;5095136;28;20230;-72
2021/12/02 04:58:28;;;;;;;1.00;1.00;;;5.30;99.90;5.20;100010.00;;;;5094612;28;20157;-71
2021/12/02 05:00:59;;;;;;;1.00;1.00;;;5.30;99.90;5.40;99997.00;;;;5094840;28;20247;-71
2021/12/02 05:03:25;;;;;;;1.27;1.27;;;5.30;99.90;5.70;100018.00;;;;5076111;28;20181;-71
2021/12/02 05:05:54;;;;;;;0.90;0.90;;;5.50;99.90;5.00;100018.00;;;;5109869;28;20222;-71
2021/12/02 05:08:22;;;;;;;1.57;1.43;;;5.40;99.90;5.30;99985.00;;;;5094356;28;20645;-71
2021/12/02 05:10:50;;;;;;;1.00;1.00;;;5.30;99.90;4.50;99991.00;;;;5094656;28;20687;-72
2021/12/02 05:13:21;;;;;;;0.90;0.90;;;4.90;99.90;4.50;99990.00;;;;5109155;28;20197;-76
2021/12/02 05:15:50;;;;;;;0.90;0.90;;;4.70;99.90;4.10;100004.00;;;;5110417;28;20173;-76
2021/12/02 05:18:17;;;;;;;0.90;0.90;;;4.50;99.90;4.00;99982.00;;;;5076141;28;20169;-77
2021/12/02 05:20:45;;;;;;;1.20;1.20;;;4.30;99.90;4.20;100006.00;;;;5076389;28;20180;-77
2021/12/02 05:23:16;;;;;;;1.10;1.10;;;4.30;99.90;4.40;99995.00;;;;5076622;28;20165;-75
2021/12/02 05:25:47;;;;;;;1.97;1.83;;;4.40;99.90;4.40;99990.00;;;;5093895;28;20200;-75
2021/12/02 05:28:18;;;;;;;1.17;1.17;;;4.50;99.90;4.60;100003.00;;;;5076080;28;20177;-73
2021/12/02 05:30:49;;;;;;;1.20;1.20;;;4.60;99.90;4.90;100002.00;;;;5094250;28;20172;-73
2021/12/02 05:33:15;;;;;;;1.30;1.30;;;4.60;99.90;4.70;99985.00;;;;5092516;28;20553;-73
2021/12/02 05:35:44;;;;;;;1.30;1.30;;;4.70;99.90;4.40;99995.00;;;;5108961;28;20173;-73
2021/12/02 05:38:11;;;;;;;1.30;1.30;;;4.60;99.90;4.60;100002.00;;;;5059304;28;20609;-73
2021/12/02 05:40:42;;;;;;;1.30;1.30;;;4.60;99.90;4.80;99990.00;;;;5092474;28;20184;-73
2021/12/02 05:43:13;;;;;;;1.30;1.30;;;4.70;99.90;5.00;99995.00;;;;5075189;28;20184;-73
2021/12/02 05:45:41;;;;;;;1.30;1.30;;;4.70;99.90;5.10;100001.00;;;;5075695;28;20720;-73
2021/12/02 05:48:09;;;;;;;1.20;1.20;;;4.80;99.90;5.10;100000.00;;;;5092911;28;20195;-73
2021/12/02 05:50:35;;;;;;;1.30;1.30;;;4.70;99.90;4.60;99996.00;;;;5093261;28;20173;-73
2021/12/02 05:53:09;;;;;;;1.10;1.10;;;4.80;99.90;4.80;99998.00;;;;5075863;28;20200;-73
2021/12/02 05:55:35;;;;;;;1.10;1.10;;;4.70;99.90;4.60;100006.00;;;;5108303;28;20168;-72
2021/12/02 05:58:03;;;;;;;1.20;1.20;;;4.70;99.90;4.60;99993.00;;;;5075508;28;20195;-71
2021/12/02 06:00:36;;;;;;;1.10;1.10;;;4.60;99.90;5.00;100019.00;;;;5091829;28;20233;-72
2021/12/02 06:03:03;;;;;;;1.17;1.17;;;4.80;99.90;4.80;100022.00;;;;5093679;28;20172;-72
2021/12/02 06:05:31;;;;;;;1.60;1.60;;;4.90;99.90;4.90;100014.00;;;;5093111;28;20179;-72
2021/12/02 06:07:59;;;;;;;1.30;1.30;;;4.90;99.90;5.10;100008.00;;;;5109507;28;20172;-72
2021/12/02 06:10:29;;;;;;;1.30;1.30;;;4.90;99.90;5.30;100012.00;;;;5075798;28;20619;-72
2021/12/02 06:12:56;;;;;;;1.30;1.30;;;5.10;99.90;4.90;99980.00;;;;5107247;28;20724;-72
2021/12/02 06:15:25;;;;;;;1.20;1.20;;;5.00;99.90;5.30;100022.00;;;;5058748;28;20227;-72
2021/12/02 06:17:51;;;;;;;1.40;1.40;;;5.10;99.90;5.70;100021.00;;;;5074965;28;20274;-72
2021/12/02 06:20:18;;;;;;;1.30;1.30;;;5.40;99.90;5.70;100004.00;;;;5109158;28;20204;-73
2021/12/02 06:22:47;;;;;;;1.40;1.40;;;5.40;99.90;5.70;100044.00;;;;5075339;28;20547;-73
2021/12/02 06:27:53;;;;;;;1.37;1.37;;;5.60;99.90;5.70;100058.00;;;;5075259;28;20185;-73
2021/12/02 06:30:25;;;;;;;1.83;1.70;;;5.50;99.90;5.10;100043.00;;;;5075035;28;20273;-74
2021/12/02 06:32:53;;;;;;;1.20;1.20;;;5.30;99.90;5.10;100032.00;;;;5074767;28;20209;-75
2021/12/02 06:35:22;;;;;;;1.50;1.50;;;5.20;99.90;5.30;100058.00;;;;5093064;28;20184;-73
2021/12/02 06:37:49;;;;;;;1.30;1.30;;;5.30;99.90;5.00;100011.00;;;;5092019;28;20638;-73
2021/12/02 06:40:19;;;;;;;4.57;2.53;;;5.20;99.90;4.50;100033.00;;;;5058237;28;20621;-73
2021/12/02 06:42:48;;;;;;;1.07;1.07;;;5.00;99.90;4.80;100042.00;;;;5074734;28;20275;-73
2021/12/02 06:45:20;;;;;;;1.00;1.00;;;4.90;99.90;4.80;100050.00;;;;5108882;28;20181;-73
2021/12/02 06:47:53;;;;;;;1.33;1.33;;;4.90;99.90;4.70;100073.00;;;;5075437;28;20165;-73
2021/12/02 06:50:29;;;;;;;1.23;1.23;;;4.90;99.90;4.30;100069.00;;;;5108292;28;20176;-73
2021/12/02 06:52:55;;;;;;;1.00;1.00;;;4.80;99.90;3.60;100089.00;;;;5058124;28;20212;-77
2021/12/02 06:55:24;;;;;;;1.10;1.10;;;4.20;99.90;3.20;100111.00;;;;5062614;28;20545;-76
2021/12/02 06:57:50;;;;;;;1.20;1.20;;;3.80;99.90;3.10;100123.00;;;;5079305;28;20531;-77
2021/12/02 07:00:19;;;;;;;1.03;1.03;;;3.50;99.90;2.80;100111.00;;;;5062353;28;20199;-75
2021/12/02 07:02:48;;;;;;;1.47;1.37;;;3.30;99.90;2.50;100115.00;;;;5062313;28;20181;-74
2021/12/02 07:05:16;;;;;;;1.27;1.27;;;3.00;99.90;2.50;100105.00;;;;5096700;28;20177;-74
2021/12/02 07:07:43;;;;;;;1.20;1.20;;;2.80;99.90;2.10;100074.00;;;;5111772;28;20177;-75
2021/12/02 07:10:22;;;;;;;1.10;1.10;;;2.60;99.90;2.30;100118.00;;;;5096934;28;20184;-76
2021/12/02 07:12:52;;;;;;;1.00;1.00;;;2.60;99.90;2.50;100088.00;;;;5079106;28;20196;-77
2021/12/02 07:15:26;;;;;;;1.00;1.00;;;2.60;99.90;2.60;100128.00;;;;5078353;28;20183;-76
2021/12/02 07:18:00;;;;;;;1.10;1.10;;;2.70;99.90;2.40;100105.00;;;;5062442;28;20549;-79
2021/12/02 07:20:34;;;;;;;1.00;1.00;;;2.80;99.90;2.30;100117.00;;;;5111426;28;20517;-78
2021/12/02 07:23:00;;;;;;;1.00;1.00;;;2.70;99.90;2.70;100052.00;;;;5061733;28;20196;-78
2021/12/02 07:25:33;;;;;;;0.90;0.90;;;2.80;99.90;3.10;100044.00;;;;5078431;28;20177;-77
2021/12/02 07:28:05;;;;;;;1.10;1.10;;;3.00;99.90;3.20;100116.00;;;;5096049;28;20180;-77
2021/12/02 07:30:39;;;;;;;1.03;1.03;;;3.20;99.90;3.50;100076.00;;;;5078505;28;20543;-75
2021/12/02 07:33:11;;;;;;;1.00;1.00;;;3.40;99.90;3.50;100098.00;;;;5096551;28;20211;-75
2021/12/02 07:35:38;;;;;;;1.10;1.10;;;3.60;99.90;3.70;100105.00;;;;5078401;28;20181;-75
2021/12/02 07:38:04;;;;;;;1.03;1.03;;;3.60;99.90;4.10;100083.00;;;;5111852;28;20157;-74
2021/12/02 07:40:36;;;;;;;1.20;1.20;;;3.70;99.90;3.90;100104.00;;;;5061577;28;20237;-73
2021/12/02 07:43:04;;;;;;;1.20;1.20;;;3.80;99.90;3.40;100106.00;;;;5078808;28;20172;-73
2021/12/02 07:45:35;;;;;;;7.57;2.43;;;3.60;99.90;3.30;100093.00;;;;5077813;28;20179;-73
2021/12/02 07:48:06;;;;;;;1.00;1.00;;;3.60;99.90;3.50;100108.00;;;;5078063;28;20157;-74
2021/12/02 07:50:36;;;;;;;1.13;1.00;;;3.60;99.90;3.20;100112.00;;;;5077639;28;20245;-73
2021/12/02 07:53:07;;;;;;;1.00;1.00;;;3.60;99.90;3.10;100117.00;;;;5078152;28;20311;-73
2021/12/02 07:55:41;;;;;;;1.27;1.17;;;3.50;99.90;3.40;100118.00;;;;5077291;28;20172;-73
2021/12/02 07:58:11;;;;;;;1.10;1.10;;;3.60;99.90;3.30;100088.00;;;;5078247;28;20179;-74
2021/12/02 08:00:44;;;;;;;0.90;0.90;;;3.60;99.90;3.30;100130.00;;;;5077815;28;20200;-74
2021/12/02 08:03:19;;;;;;;1.00;1.00;;;3.60;99.90;3.20;100121.00;;;;5078039;28;20187;-75
2021/12/02 08:05:48;;;;;;;1.10;1.00;;;3.50;99.90;3.30;100123.00;;;;5076274;28;20183;-75
2021/12/02 08:08:17;;;;;;;0.90;0.90;;;3.60;99.90;3.30;100126.00;;;;5107413;28;20197;-75
2021/12/02 08:10:49;;;;;;;1.00;1.00;;;3.50;99.90;3.50;100129.00;;;;5066358;28;20227;-75
2021/12/02 08:13:15;;;;;;;1.20;1.20;;;3.50;99.90;3.40;100144.00;;;;5071709;28;20201;-78
2021/12/02 08:15:43;;;;;;;1.20;1.20;;;3.60;99.90;3.70;100151.00;;;;5077372;28;20206;-69
2021/12/02 08:18:12;;;;;;;1.30;1.30;;;3.70;99.90;4.00;100135.00;;;;5077753;28;20199;-74
2021/12/02 08:20:38;;;;;;;1.20;1.20;;;3.90;99.90;4.20;100148.00;;;;5060045;28;20382;-73
2021/12/02 08:23:07;;;;;;;1.20;1.20;;;4.00;99.90;3.70;100148.00;;;;5095137;28;20318;-73
2021/12/02 08:25:33;;;;;;;1.00;1.00;;;4.00;99.90;3.60;100145.00;;;;5094830;28;20177;-73
2021/12/02 08:28:00;;;;;;;1.20;1.20;;;3.80;99.90;4.00;100133.00;;;;5077422;28;20189;-73
2021/12/02 08:30:33;;;;;;;1.10;1.10;;;4.00;99.90;3.90;100115.00;;;;5077767;28;20195;-73
2021/12/02 08:33:01;;;;;;;1.10;1.10;;;4.10;99.90;4.20;100128.00;;;;5095675;28;20216;-73
2021/12/02 08:35:37;;;;;;;1.40;1.40;;;4.20;99.90;4.60;100134.00;;;;5094935;28;20636;-74
2021/12/02 08:38:13;;;;;;;1.00;1.00;;;4.30;99.90;4.30;100111.00;;;;5060831;28;20217;-73
2021/12/02 08:40:43;;;;;;;1.10;1.10;;;4.30;99.90;4.60;100132.00;;;;5077851;28;20272;-73
2021/12/02 08:43:12;;;;;;;1.00;1.00;;;4.40;99.90;4.70;100181.00;;;;5076146;28;20179;-73
2021/12/02 08:45:44;;;;;;;1.17;1.17;;;4.60;99.90;4.70;100179.00;;;;5076296;28;20238;-73
2021/12/02 08:48:11;;;;;;;1.00;1.00;;;4.70;99.90;4.70;100146.00;;;;5076796;28;20169;-73
2021/12/02 08:50:41;;;;;;;0.90;0.90;;;4.70;99.90;4.80;100156.00;;;;5060339;28;20668;-73
2021/12/02 08:53:09;;;;;;;1.00;1.00;;;4.80;99.90;4.80;100184.00;;;;5075930;28;20269;-72
2021/12/02 08:55:38;;;;;;;1.17;1.17;;;4.90;99.90;5.10;100192.00;;;;5076496;28;20238;-68
2021/12/02 08:58:06;;;;;;;0.90;0.90;;;5.00;99.90;5.10;100189.00;;;;5110826;28;20587;-68
2021/12/02 09:00:40;;;;;;;1.00;1.00;;;5.20;99.90;5.20;100191.00;;;;5076417;28;20195;-71
2021/12/02 09:03:13;;;;;;;1.00;1.00;;;5.30;99.90;5.10;100205.00;;;;5076545;28;20262;-71
2021/12/02 09:05:45;;;;;;;7.40;3.07;;;5.30;99.90;5.00;100204.00;;;;5059603;28;20177;-71
2021/12/02 09:08:19;;;;;;;0.90;0.90;;;5.10;99.90;4.70;100194.00;;;;5109772;28;20200;-71
2021/12/02 09:10:51;;;;;;;1.27;1.00;;;5.00;99.90;4.70;100203.00;;;;5110587;28;20188;-72
2021/12/02 09:13:25;;;;;;;0.93;0.93;;;4.90;99.90;4.70;100153.00;;;;5093035;28;20226;-72
2021/12/02 09:16:02;;;;;;;1.00;1.00;;;4.80;99.90;4.40;100228.00;;;;5108206;28;20535;-72
2021/12/02 09:18:36;;;;;;;6.90;1.60;;;4.70;99.90;4.10;100217.00;;;;5059124;28;20207;-73
2021/12/02 09:21:13;;;;;;;1.00;1.00;;;4.50;99.90;3.90;100224.00;;;;5093156;28;20227;-76
2021/12/02 09:23:48;;;;;;;1.60;1.50;;;4.30;99.90;3.70;100225.00;;;;5094627;28;20168;-76
2021/12/02 09:26:17;;;;;;;1.10;1.10;;;4.10;99.90;3.60;100210.00;;;;5073384;28;20184;-77
2021/12/02 09:28:52;;;;;;;1.00;1.00;;;3.90;99.90;3.40;100231.00;;;;5075650;28;20291;-77
2021/12/02 09:31:29;;;;;;;1.00;1.00;;;3.80;99.90;3.90;100221.00;;;;5109269;28;20215;-77
2021/12/02 09:33:59;;;;;;;1.10;1.10;;;3.90;99.90;3.90;100183.00;;;;5059151;28;20286;-78
2021/12/02 09:36:32;;;;;;;1.10;1.10;;;4.00;99.90;3.90;100227.00;;;;5093106;28;20176;-78
2021/12/02 09:38:58;;;;;;;1.13;1.13;;;4.00;99.90;3.70;100244.00;;;;5109215;28;20153;-78
2021/12/02 09:41:24;;;;;;;1.07;1.07;;;4.10;99.90;3.90;100251.00;;;;5092643;28;20177;-78
2021/12/02 09:43:53;;;;;;;1.20;1.20;;;4.10;99.90;4.00;100240.00;;;;5075345;28;20230;-77
2021/12/02 09:46:19;;;;;;;1.27;1.27;;;4.10;99.90;4.00;100223.00;;;;5094450;28;20648;-78
2021/12/02 09:48:46;;;;;;;1.30;1.30;;;4.10;99.90;3.90;100254.00;;;;5109939;28;20172;-79
2021/12/02 09:51:18;;;;;;;1.30;1.30;;;4.00;99.90;4.20;100255.00;;;;5076367;28;20177;-77
2021/12/02 09:58:50;;;;;;;1.10;1.10;;;4.30;99.90;4.50;100253.00;;;;5072121;28;20182;-77
2021/12/02 10:01:23;;;;;;;1.10;1.10;;;4.40;99.90;4.10;100229.00;;;;5071583;28;20680;-76
2021/12/02 10:03:58;;;;;;;1.20;1.20;;;4.40;99.90;4.70;100256.00;;;;5072235;28;20182;-74
2021/12/02 10:06:31;;;;;;;1.30;1.30;;;4.50;99.90;4.30;100234.00;;;;5073367;28;20713;-74
2021/12/02 10:09:09;;;;;;;1.10;1.10;;;4.50;99.90;4.30;100251.00;;;;5073632;28;20185;-76
2021/12/02 10:12:14;;;;;;;1.07;1.07;;;4.40;99.90;4.70;100245.00;;;;5072185;28;20197;-75
2021/12/02 10:14:44;;;;;;;1.20;1.20;;;4.50;99.90;5.00;100251.00;;;;5071542;28;20204;-69
2021/12/02 10:17:32;;;;;;;1.30;1.30;;;4.70;99.90;5.00;100251.00;;;;5074619;28;20188;-74
2021/12/02 10:20:31;;;;;;;1.30;1.30;;;4.90;99.90;4.80;100256.00;;;;5107164;28;20196;-73
2021/12/02 10:33:35;;;;;;;0.70;0.70;;;4.00;99.90;3.90;100249.00;;;;5055343;27;2275634;-73
2021/12/02 10:36:27;;;;;;;1.00;0.90;;;4.20;99.90;4.20;100266.00;;;;5109404;28;20613;-73
2021/12/02 10:39:00;;;;;;;0.73;0.73;;;4.30;99.90;3.80;100282.00;;;;5099726;28;20200;-74
2021/12/02 10:41:30;;;;;;;0.70;0.70;;;4.30;99.90;4.20;100279.00;;;;5091747;28;20208;-75
2021/12/02 10:44:18;;;;;;;0.90;0.90;;;4.30;99.90;4.10;100280.00;;;;5109888;28;20247;-74
2021/12/02 10:47:03;;;;;;;0.90;0.90;;;4.30;99.90;4.00;100276.00;;;;5092556;28;20199;-76
2021/12/02 10:49:37;;;;;;;0.80;0.80;;;4.30;99.90;3.80;100260.00;;;;5108778;28;20187;-77
2021/12/02 10:52:06;;;;;;;0.93;0.93;;;4.20;99.90;3.60;100286.00;;;;5092466;28;20207;-76
2021/12/02 10:54:41;;;;;;;0.90;0.90;;;4.00;99.90;3.40;100270.00;;;;5109067;28;20183;-76
2021/12/02 10:57:20;;;;;;;0.90;0.90;;;3.80;99.90;3.50;100282.00;;;;5091754;28;20585;-76
2021/12/02 10:59:51;;;;;;;0.90;0.90;;;3.80;99.90;3.70;100277.00;;;;5109131;28;20230;-76
2021/12/02 11:02:35;;;;;;;1.00;1.00;;;3.90;99.90;4.00;100283.00;;;;5091795;28;20180;-75
2021/12/02 11:05:19;;;;;;;0.90;0.90;;;3.90;99.90;4.10;100274.00;;;;5072211;28;20267;-77
2021/12/02 11:07:57;;;;;;;1.00;1.00;;;4.00;99.90;4.20;100278.00;;;;5088494;28;20673;-77
2021/12/02 11:10:26;;;;;;;0.80;0.80;;;4.10;99.90;4.10;100261.00;;;;5088159;28;20177;-76
2021/12/02 11:12:55;;;;;;;0.80;0.80;;;4.10;99.90;2.90;100250.00;;;;5088683;28;20208;-71
2021/12/02 11:15:29;;;;;;;1.10;1.10;;;3.60;99.90;2.50;100239.00;;;;5089491;28;20188;-69
2021/12/02 11:18:03;;;;;;;0.80;0.80;;;3.10;99.90;2.70;100242.00;;;;5087948;28;20188;-76
2021/12/02 11:20:41;;;;;;;0.73;0.73;;;3.10;99.90;3.40;100211.00;;;;5088534;28;20637;-76
2021/12/02 11:23:13;;;;;;;0.80;0.80;;;3.40;99.90;3.60;100264.00;;;;5089582;28;20189;-74
2021/12/02 11:26:06;;;;;;;0.90;0.90;;;3.50;99.90;3.50;100272.00;;;;5087850;28;20184;-82
2021/12/02 11:28:40;;;;;;;0.90;0.90;;;3.60;99.90;3.70;100266.00;;;;5088061;28;20614;-76
2021/12/02 11:31:21;;;;;;;1.00;1.00;;;3.60;99.90;4.10;100280.00;;;;5087996;28;20628;-76
2021/12/02 11:33:52;;;;;;;1.00;1.00;;;3.90;99.90;4.60;100234.00;;;;5088127;28;20188;-76
2021/12/02 11:36:29;;;;;;;1.00;1.00;;;4.30;99.90;4.20;100268.00;;;;5100578;28;20757;-75
2021/12/02 11:38:59;;;;;;;1.30;1.23;;;4.40;99.90;4.10;100278.00;;;;5109327;28;20207;-73
2021/12/02 11:41:26;;;;;;;0.80;0.80;;;4.20;99.90;4.50;100290.00;;;;5087335;28;20211;-73
2021/12/02 11:44:10;;;;;;;0.70;0.70;;;4.40;99.90;5.00;100277.00;;;;5081923;28;20184;-73
2021/12/02 11:46:44;;;;;;;0.80;0.80;;;4.80;99.90;4.80;100289.00;;;;5094865;28;20177;-73
2021/12/02 11:49:18;;;;;;;1.33;1.33;;;5.00;99.90;5.00;100275.00;;;;5094916;28;20237;-72
2021/12/02 11:51:52;;;;;;;0.90;0.90;;;5.20;99.90;4.10;100223.00;;;;5078018;28;20247;-72
2021/12/02 11:54:27;;;;;;;2.17;2.07;;;4.70;99.90;4.80;100288.00;;;;5095114;28;20632;-72
2021/12/02 11:56:57;;;;;;;1.40;1.40;;;4.80;99.90;5.30;100288.00;;;;5078248;28;20633;-72